Time;durP1;ratioP1;P1;durP2;ratioP2;P2;SDS_P1;SDS_P2;PMS_P1;PMS_P2;Temp;Humidity;BMP_temperature;BMP_pressure;BME280_temperature;BME280_humidity;BME280_pressure;Samples;Min_cycle;Max_cycle;Signal;HPM_P1;HPM_P2
2022/08/17 00:01:07;;;;;;;11.02;7.97;;;;;;;19.27;100.00;100468.53;5027944;28;20448;-86
2022/08/17 00:03:38;;;;;;;10.17;8.13;;;;;;;19.20;100.00;100468.28;5025700;28;20783;-86
2022/08/17 00:06:14;;;;;;;10.25;7.60;;;;;;;19.20;100.00;100469.09;5027972;28;20419;-86
2022/08/17 00:08:49;;;;;;;10.50;7.82;;;;;;;19.22;100.00;100463.22;5010168;28;20422;-86
2022/08/17 00:11:27;;;;;;;9.52;7.00;;;;;;;19.23;100.00;100467.59;5029106;28;20411;-86
2022/08/17 00:14:05;;;;;;;10.30;7.45;;;;;;;19.23;100.00;100469.56;5022764;28;20439;-86
2022/08/17 00:16:41;;;;;;;11.25;8.02;;;;;;;19.11;100.00;100473.09;5024711;28;20430;-87
2022/08/17 00:19:17;;;;;;;9.25;7.38;;;;;;;18.99;100.00;100477.47;5029796;28;20433;-86
2022/08/17 00:21:55;;;;;;;12.48;7.75;;;;;;;18.89;100.00;100466.84;5010858;28;20438;-87
2022/08/17 00:24:31;;;;;;;10.73;7.60;;;;;;;18.87;100.00;100466.38;5011201;28;20411;-86
2022/08/17 00:27:00;;;;;;;10.90;7.88;;;;;;;18.97;100.00;100471.47;5011077;28;20430;-86
2022/08/17 00:29:33;;;;;;;9.88;7.85;;;;;;;19.05;100.00;100480.78;5020985;28;20435;-86
2022/08/17 00:32:07;;;;;;;10.43;7.68;;;;;;;19.08;100.00;100485.63;5010721;28;20422;-87
2022/08/17 00:34:40;;;;;;;12.52;8.45;;;;;;;19.06;100.00;100476.91;5026741;28;20426;-86
2022/08/17 00:37:13;;;;;;;10.73;8.37;;;;;;;19.09;100.00;100487.25;5027699;28;20426;-87
2022/08/17 00:39:46;;;;;;;10.27;8.43;;;;;;;19.04;100.00;100484.69;5026058;28;20763;-86
2022/08/17 00:42:21;;;;;;;10.73;8.05;;;;;;;19.01;100.00;100479.88;5026605;28;20430;-87
2022/08/17 00:44:54;;;;;;;11.68;8.63;;;;;;;18.96;100.00;100474.56;5011192;28;20903;-85
2022/08/17 00:47:27;;;;;;;11.88;8.80;;;;;;;18.96;100.00;100477.31;5009698;28;20435;-86
2022/08/17 00:50:00;;;;;;;9.98;8.40;;;;;;;18.96;100.00;100471.81;5008538;28;20433;-86
2022/08/17 00:52:38;;;;;;;12.18;8.82;;;;;;;18.95;100.00;100475.75;5010962;28;20431;-88
2022/08/17 00:55:12;;;;;;;11.60;8.38;;;;;;;18.91;100.00;100464.56;5031690;28;20428;-86
2022/08/17 00:57:50;;;;;;;11.02;8.48;;;;;;;18.89;100.00;100471.56;5011568;28;20792;-87
2022/08/17 01:00:27;;;;;;;11.75;8.63;;;;;;;18.88;100.00;100462.50;5008458;28;20429;-86
2022/08/17 01:02:58;;;;;;;11.27;8.70;;;;;;;18.90;100.00;100475.94;5026309;28;20900;-87
2022/08/17 01:05:33;;;;;;;10.85;8.35;;;;;;;18.81;100.00;100473.25;5008770;28;20427;-87
2022/08/17 01:08:10;;;;;;;11.43;8.40;;;;;;;18.78;100.00;100474.75;5026846;28;20415;-86
2022/08/17 01:10:47;;;;;;;12.80;8.40;;;;;;;18.79;100.00;100478.31;5023896;28;20434;-86
2022/08/17 01:13:17;;;;;;;10.35;8.43;;;;;;;18.81;100.00;100476.81;5025144;28;20423;-87
2022/08/17 01:15:53;;;;;;;12.40;8.95;;;;;;;18.79;100.00;100481.06;5009555;28;20454;-86
2022/08/17 01:18:27;;;;;;;10.75;8.57;;;;;;;18.75;100.00;100478.16;5028089;28;20423;-86
2022/08/17 01:21:04;;;;;;;11.65;8.50;;;;;;;18.64;100.00;100471.47;5026902;28;20439;-86
2022/08/17 01:23:41;;;;;;;11.98;9.15;;;;;;;18.63;100.00;100484.47;5002693;28;20784;-87
2022/08/17 01:26:14;;;;;;;13.77;9.60;;;;;;;18.63;100.00;100480.88;5017397;28;20432;-86
2022/08/17 01:28:48;;;;;;;12.60;9.60;;;;;;;18.64;100.00;100477.81;5027300;28;20442;-86
2022/08/17 01:31:21;;;;;;;12.45;9.43;;;;;;;18.59;100.00;100482.69;5008689;28;20483;-87
2022/08/17 01:33:57;;;;;;;13.02;9.50;;;;;;;18.58;100.00;100486.63;5009420;28;20826;-87
2022/08/17 01:36:30;;;;;;;10.95;9.02;;;;;;;18.58;100.00;100486.63;5013612;28;20437;-86
2022/08/17 01:39:06;;;;;;;12.88;9.27;;;;;;;18.51;100.00;100485.22;5012569;28;20435;-86
2022/08/17 01:41:40;;;;;;;15.30;9.03;;;;;;;18.48;100.00;100471.31;5023402;28;20760;-87
2022/08/17 01:44:15;;;;;;;11.18;8.82;;;;;;;18.52;100.00;100486.81;5029842;28;20457;-86
2022/08/17 01:46:48;;;;;;;11.13;8.60;;;;;;;18.50;100.00;100483.59;5029515;28;20423;-85
2022/08/17 01:49:21;;;;;;;12.05;9.50;;;;;;;18.51;100.00;100490.72;5030277;28;20915;-87
2022/08/17 01:51:55;;;;;;;11.43;9.30;;;;;;;18.49;100.00;100487.50;5024452;28;20438;-86
2022/08/17 01:54:30;;;;;;;12.50;10.20;;;;;;;18.46;100.00;100485.44;5012409;28;20780;-86
2022/08/17 01:57:03;;;;;;;12.52;10.10;;;;;;;18.45;100.00;100485.75;5036860;28;20424;-85
2022/08/17 01:59:32;;;;;;;13.00;9.70;;;;;;;18.41;100.00;100491.16;5030992;28;20427;-87
2022/08/17 02:02:06;;;;;;;14.80;10.43;;;;;;;18.43;100.00;100499.88;5023153;28;20432;-86
2022/08/17 02:04:39;;;;;;;16.53;10.50;;;;;;;18.43;100.00;100499.88;5029441;28;20915;-86
2022/08/17 02:07:12;;;;;;;15.40;10.55;;;;;;;18.33;100.00;100498.34;5029346;28;20426;-87
2022/08/17 02:09:42;;;;;;;13.07;10.82;;;;;;;18.36;100.00;100502.38;5013706;28;20423;-86
2022/08/17 02:12:16;;;;;;;14.63;11.10;;;;;;;18.36;100.00;100499.63;5026779;28;20420;-87
2022/08/17 02:14:49;;;;;;;14.05;11.05;;;;;;;18.31;100.00;100495.13;5012034;28;20431;-86
2022/08/17 02:17:22;;;;;;;12.88;10.43;;;;;;;18.29;100.00;100493.84;5029127;28;20430;-87
2022/08/17 02:19:55;;;;;;;14.98;11.20;;;;;;;18.30;100.00;100493.50;5025735;28;20423;-86
2022/08/17 02:22:29;;;;;;;14.43;11.17;;;;;;;18.27;100.00;100490.59;5031624;28;20430;-86
2022/08/17 02:25:00;;;;;;;15.17;12.27;;;;;;;18.26;100.00;100491.78;5006851;28;20830;-86
2022/08/17 02:27:34;;;;;;;15.00;12.32;;;;;;;18.15;100.00;100489.41;5015999;28;20407;-86
2022/08/17 02:30:11;;;;;;;16.02;12.57;;;;;;;18.14;100.00;100492.50;5023591;28;20959;-87
2022/08/17 02:32:44;;;;;;;14.73;11.85;;;;;;;18.18;100.00;100482.44;5027892;28;20423;-86
2022/08/17 02:35:17;;;;;;;16.45;12.15;;;;;;;18.24;100.00;100492.09;5027297;28;20423;-86
2022/08/17 02:37:51;;;;;;;15.43;12.67;;;;;;;18.22;100.00;100486.13;5030064;28;20418;-87
2022/08/17 02:40:20;;;;;;;18.98;13.63;;;;;;;18.28;100.00;100495.78;5028689;28;20436;-86
2022/08/17 02:42:54;;;;;;;15.95;13.43;;;;;;;18.31;100.00;100494.31;5029098;28;20403;-86
2022/08/17 02:45:27;;;;;;;19.30;13.60;;;;;;;18.23;100.00;100484.97;5032565;28;20911;-86
2022/08/17 02:48:01;;;;;;;16.48;13.35;;;;;;;18.17;100.00;100486.31;5027551;28;20426;-86
2022/08/17 02:50:34;;;;;;;15.20;13.07;;;;;;;18.29;100.00;100497.41;5026480;28;20427;-87
2022/08/17 02:53:07;;;;;;;17.38;13.77;;;;;;;18.22;100.00;100493.59;5026917;28;20922;-86
2022/08/17 02:55:39;;;;;;;17.88;14.07;;;;;;;17.91;100.00;100484.56;5026836;28;20423;-86
2022/08/17 02:58:13;;;;;;;17.50;13.68;;;;;;;17.75;100.00;100491.78;5011573;28;20791;-87
2022/08/17 03:00:47;;;;;;;16.38;13.13;;;;;;;17.74;100.00;100488.19;5009931;28;20777;-87
2022/08/17 03:03:20;;;;;;;16.15;12.77;;;;;;;17.84;100.00;100485.06;5020107;28;20432;-86
2022/08/17 03:05:51;;;;;;;15.63;11.60;;;;;;;17.90;100.00;100488.44;5026442;28;20414;-85
2022/08/17 03:08:25;;;;;;;13.80;10.83;;;;;;;17.90;100.00;100496.69;5012076;28;20498;-86
2022/08/17 03:10:59;;;;;;;18.70;11.98;;;;;;;17.90;100.00;100495.88;5027135;28;20422;-86
2022/08/17 03:13:29;;;;;;;14.97;11.67;;;;;;;17.89;100.00;100495.06;5010287;28;20821;-86
2022/08/17 03:16:02;;;;;;;16.30;12.63;;;;;;;17.88;100.00;100487.16;5028142;28;20431;-87
2022/08/17 03:18:35;;;;;;;14.90;12.20;;;;;;;17.77;100.00;100494.97;5014584;28;20424;-87
2022/08/17 03:21:09;;;;;;;14.43;11.60;;;;;;;17.80;100.00;100483.31;5009112;28;20419;-87
2022/08/17 03:23:42;;;;;;;14.05;11.88;;;;;;;17.75;100.00;100480.75;5011916;28;20917;-86
2022/08/17 03:26:16;;;;;;;14.48;11.70;;;;;;;17.84;100.00;100493.34;5024865;28;20426;-86
2022/08/17 03:28:50;;;;;;;14.27;11.18;;;;;;;17.87;100.00;100493.78;5006146;28;20423;-86
2022/08/17 03:31:23;;;;;;;17.83;12.35;;;;;;;17.90;100.00;100498.63;5025237;28;20428;-87
2022/08/17 03:33:56;;;;;;;13.95;11.80;;;;;;;17.91;100.00;100492.84;5011508;28;20427;-86
2022/08/17 03:36:29;;;;;;;15.50;12.30;;;;;;;17.87;100.00;100488.28;5012105;28;20783;-86
2022/08/17 03:39:02;;;;;;;16.83;12.85;;;;;;;17.85;100.00;100486.66;5029715;28;20430;-85
2022/08/17 03:41:33;;;;;;;15.10;12.45;;;;;;;17.84;100.00;100496.09;5027175;28;20803;-86
2022/08/17 03:44:01;;;;;;;14.37;12.33;;;;;;;17.87;100.00;100477.28;5029627;28;20507;-86
2022/08/17 03:57:53;;;;;;;14.55;11.25;;;;;;;17.88;100.00;100490.69;5028518;28;20461;-86
2022/08/17 04:00:27;;;;;;;16.40;11.93;;;;;;;17.82;100.00;100481.84;5004344;28;20435;-86
2022/08/17 04:03:00;;;;;;;15.77;11.32;;;;;;;17.86;100.00;100490.25;5026583;28;20460;-86
2022/08/17 04:05:28;;;;;;;14.02;11.35;;;;;;;17.79;100.00;100490.75;5026317;28;20431;-86
2022/08/17 04:08:02;;;;;;;14.88;11.35;;;;;;;17.81;100.00;100491.22;5028487;28;20426;-86
2022/08/17 04:10:36;;;;;;;14.82;11.25;;;;;;;17.85;100.00;100489.41;5009396;28;20429;-86
2022/08/17 04:13:10;;;;;;;14.75;11.88;;;;;;;17.88;100.00;100490.69;5027108;28;20423;-86
2022/08/17 04:15:47;;;;;;;17.52;12.63;;;;;;;17.84;100.00;100496.09;5023148;28;20419;-86
2022/08/17 04:18:20;;;;;;;13.30;11.35;;;;;;;17.84;100.00;100495.25;5024603;28;20430;-86
2022/08/17 04:20:49;;;;;;;15.30;12.20;;;;;;;17.87;100.00;100500.13;5021740;28;20415;-85
2022/08/17 04:23:22;;;;;;;14.48;11.55;;;;;;;17.89;100.00;100497.03;5010980;28;20937;-86
2022/08/17 04:25:56;;;;;;;15.02;11.80;;;;;;;17.95;100.00;100496.53;5006354;28;20423;-86
2022/08/17 04:28:30;;;;;;;14.05;11.15;;;;;;;17.97;100.00;100498.94;4996950;28;20465;-87
2022/08/17 04:31:03;;;;;;;13.73;11.10;;;;;;;17.97;100.00;100501.69;5011241;28;20426;-85
2022/08/17 04:33:37;;;;;;;14.18;11.23;;;;;;;17.97;100.00;100504.47;5026712;28;20430;-86
2022/08/17 04:36:07;;;;;;;14.07;11.07;;;;;;;17.99;100.00;100511.25;5027976;28;20880;-85
2022/08/17 04:38:43;;;;;;;17.13;12.13;;;;;;;17.99;100.00;100514.00;5011257;28;20419;-85
2022/08/17 04:44:10;;;;;;;13.82;11.20;;;;;;;17.98;100.00;100512.38;5012983;28;20783;-86
2022/08/17 04:46:38;;;;;;;15.30;11.60;;;;;;;17.84;100.00;100489.75;5010635;28;20434;-85
2022/08/17 04:49:12;;;;;;;15.55;12.00;;;;;;;17.88;100.00;100509.97;5004652;28;20412;-86
2022/08/17 04:51:42;;;;;;;14.07;11.43;;;;;;;18.03;100.00;100522.38;5010908;28;20435;-86
2022/08/17 04:54:17;;;;;;;14.23;11.50;;;;;;;18.07;100.00;100525.28;5028976;28;20751;-86
2022/08/17 04:56:50;;;;;;;14.70;11.15;;;;;;;18.10;100.00;100519.88;5005593;28;20912;-86
2022/08/17 04:59:25;;;;;;;14.90;11.00;;;;;;;18.08;100.00;100529.66;5001812;28;20627;-86
2022/08/17 05:01:58;;;;;;;14.02;10.88;;;;;;;18.15;100.00;100521.66;5021691;28;20439;-85
2022/08/17 05:04:31;;;;;;;16.10;12.48;;;;;;;18.22;100.00;100518.38;5010511;28;20431;-85
2022/08/17 05:07:04;;;;;;;15.68;12.20;;;;;;;18.30;100.00;100521.06;5031675;28;20418;-86
2022/08/17 05:09:37;;;;;;;16.97;12.87;;;;;;;18.48;100.00;100516.19;5030810;28;20494;-86
2022/08/17 05:12:11;;;;;;;16.47;12.70;;;;;;;19.26;100.00;100516.56;5007776;28;20790;-85
2022/08/17 05:14:45;;;;;;;17.63;12.73;;;;;;;20.65;100.00;100514.91;5024380;28;20426;-86
2022/08/17 05:17:18;;;;;;;15.75;11.80;;;;;;;21.66;100.00;100514.75;5013158;28;20442;-86
2022/08/17 05:19:51;;;;;;;15.10;11.80;;;;;;;22.44;100.00;100516.88;5016291;28;20506;-86
2022/08/17 05:22:24;;;;;;;14.33;11.40;;;;;;;22.70;100.00;100510.66;5030331;28;20415;-87
2022/08/17 05:24:58;;;;;;;13.57;11.30;;;;;;;22.88;100.00;100511.81;5013250;28;20427;-87
2022/08/17 05:27:26;;;;;;;13.73;10.88;;;;;;;22.95;100.00;100524.19;5030021;28;20453;-86
2022/08/17 05:29:55;;;;;;;15.68;11.27;;;;;;;22.30;100.00;100522.88;5013785;28;20434;-86
2022/08/17 05:32:28;;;;;;;15.18;11.52;;;;;;;21.45;100.00;100526.06;5032785;28;20427;-87
2022/08/17 05:35:01;;;;;;;17.33;11.77;;;;;;;20.83;100.00;100532.81;5010368;28;20438;-86
2022/08/17 05:37:35;;;;;;;15.05;12.90;;;;;;;20.39;100.00;100527.19;5024853;28;20426;-87
2022/08/17 05:40:09;;;;;;;15.60;12.90;;;;;;;20.18;100.00;100535.66;5013788;28;20442;-86
2022/08/17 05:42:37;;;;;;;16.48;12.63;;;;;;;20.43;100.00;100533.63;5014077;28;20418;-85
2022/08/17 05:45:08;;;;;;;15.47;12.80;;;;;;;20.43;100.00;100530.06;5028181;28;20799;-86
2022/08/17 05:47:37;;;;;;;16.92;12.88;;;;;;;20.26;100.00;100528.38;5012893;28;20419;-86
2022/08/17 05:50:19;;;;;;;15.20;12.90;;;;;;;20.05;100.00;100532.94;5012739;28;21052;-86
2022/08/17 05:53:00;;;;;;;16.60;13.48;;;;;;;20.13;100.00;100538.66;5011718;28;20431;-86
2022/08/17 05:55:36;;;;;;;17.30;13.52;;;;;;;20.37;100.00;100533.06;5027873;28;20437;-86
2022/08/17 05:58:20;;;;;;;16.17;13.27;;;;;;;20.27;100.00;100541.06;5010340;28;20441;-86
2022/08/17 06:00:59;;;;;;;15.68;13.02;;;;;;;20.27;100.00;100533.56;5028790;28;20432;-87
2022/08/17 06:03:40;;;;;;;19.80;14.40;;;;;;;20.30;100.00;100540.34;5026052;28;20863;-86
2022/08/17 06:06:23;;;;;;;15.93;13.30;;;;;;;20.34;100.00;100542.06;5023348;28;20932;-86
2022/08/17 06:09:02;;;;;;;20.80;14.10;;;;;;;20.42;100.00;100531.22;5028841;28;21021;-85
2022/08/17 06:11:44;;;;;;;16.13;13.70;;;;;;;20.60;100.00;100538.06;5025812;28;20891;-87
2022/08/17 06:14:31;;;;;;;17.17;13.70;;;;;;;20.68;100.00;100539.91;5011411;28;20431;-88
2022/08/17 06:17:10;;;;;;;19.48;14.07;;;;;;;20.59;100.00;100544.75;5024405;28;20434;-87
2022/08/17 06:19:42;;;;;;;16.55;13.50;;;;;;;20.51;100.00;100542.94;5027786;28;20411;-86
2022/08/17 06:22:18;;;;;;;17.38;14.02;;;;;;;20.56;100.00;100542.69;5026126;28;20424;-86
2022/08/17 06:24:56;;;;;;;16.60;13.70;;;;;;;20.71;100.00;100536.44;5024258;28;20918;-86
2022/08/17 06:27:31;;;;;;;16.27;12.88;;;;;;;;;;5028345;28;20453;-86
2022/08/17 06:30:08;;;;;;;17.30;13.13;;;;;;;20.97;100.00;100543.44;5010993;28;20446;-87
2022/08/17 06:32:45;;;;;;;17.53;13.20;;;;;;;20.97;100.00;100526.84;5028788;28;20431;-86
2022/08/17 06:35:26;;;;;;;16.45;12.45;;;;;;;21.18;100.00;100551.50;5011724;28;20430;-86
2022/08/17 06:38:09;;;;;;;16.30;13.00;;;;;;;21.24;100.00;100549.31;5028563;28;20435;-87
2022/08/17 06:40:54;;;;;;;15.77;12.35;;;;;;;21.27;100.00;100558.84;5019139;28;20430;-86
2022/08/17 06:43:40;;;;;;;17.70;13.30;;;;;;;21.30;100.00;100561.72;5003658;28;20416;-87
2022/08/17 06:46:12;;;;;;;14.60;11.93;;;;;;;21.40;100.00;100558.44;5007605;28;20522;-84
2022/08/17 06:48:56;;;;;;;15.50;12.40;;;;;;;21.46;100.00;100553.41;5021357;28;20432;-87
2022/08/17 06:51:35;;;;;;;16.33;12.07;;;;;;;21.74;100.00;100560.84;5004693;28;20942;-86
2022/08/17 06:54:17;;;;;;;16.40;12.45;;;;;;;21.75;100.00;100532.00;5028356;28;20458;-86
2022/08/17 06:56:58;;;;;;;13.52;11.68;;;;;;;21.97;100.00;100562.94;5024191;28;20454;-86
2022/08/17 06:59:40;;;;;;;14.25;11.38;;;;;;;22.07;100.00;100557.66;5008976;28;20449;-86
2022/08/17 07:02:16;;;;;;;16.60;11.50;;;;;;;22.08;100.00;100567.59;5013534;28;20643;-86
2022/08/17 07:04:51;;;;;;;14.90;11.82;;;;;;;22.05;100.00;100565.53;5007804;28;20430;-85
2022/08/17 07:10:12;;;;;;;17.90;11.33;;;;;;;22.33;100.00;100566.50;5010137;28;20434;-86
2022/08/17 07:12:46;;;;;;;14.23;11.05;;;;;;;22.44;100.00;100567.56;5004747;28;20430;-84
2022/08/17 07:15:23;;;;;;;13.85;10.88;;;;;;;22.47;100.00;100572.41;5023796;28;20634;-86
2022/08/17 07:17:58;;;;;;;15.75;10.70;;;;;;;22.61;100.00;100563.59;5025584;28;20502;-86
2022/08/17 07:20:33;;;;;;;11.77;9.18;;;;;;;22.69;100.00;100567.28;5008691;28;20911;-88
2022/08/17 07:23:11;;;;;;;11.07;9.23;;;;;;;22.63;100.00;100557.66;5021712;28;20425;-86
2022/08/17 07:25:39;;;;;;;11.57;9.25;;;;;;;22.85;100.00;100581.09;5026122;28;20430;-84
2022/08/17 07:28:14;;;;;;;15.60;9.25;;;;;;;22.96;100.00;100562.66;5025900;28;20442;-85
2022/08/17 07:30:51;;;;;;;13.50;8.48;;;;;;;23.07;100.00;100566.44;5011158;28;20428;-86
2022/08/17 07:33:23;;;;;;;13.50;8.87;;;;;;;23.13;100.00;100571.72;5021481;28;20439;-85
2022/08/17 07:35:59;;;;;;;12.52;9.57;;;;;;;23.28;100.00;100570.81;5019815;28;20437;-85
2022/08/17 07:38:34;;;;;;;11.35;7.53;;;;;;;23.41;100.00;100571.44;5022161;28;20776;-85
2022/08/17 07:41:09;;;;;;;12.10;7.95;;;;;;;23.48;100.00;100573.53;5021740;28;20432;-85
2022/08/17 07:43:48;;;;;;;11.57;8.02;;;;;;;23.46;100.00;100573.91;5021113;28;20757;-85
2022/08/17 07:49:22;;;;;;;10.15;7.70;;;;;;;23.68;100.00;100577.84;5002135;28;20885;-85
2022/08/17 07:52:04;;;;;;;10.90;7.15;;;;;;;23.87;100.00;100570.59;4974598;28;20443;-84
2022/08/17 07:54:40;;;;;;;10.32;7.25;;;;;;;23.84;100.00;100566.59;4998161;28;20439;-85
2022/08/17 07:57:29;;;;;;;10.98;7.63;;;;;;;23.93;100.00;100569.13;5003939;28;20426;-85
2022/08/17 08:00:22;;;;;;;9.45;7.15;;;;;;;23.95;100.00;100566.78;4997645;28;20431;-85
2022/08/17 08:03:04;;;;;;;10.85;7.53;;;;;;;23.99;100.00;100566.81;4975071;28;20439;-84
2022/08/17 08:05:53;;;;;;;10.52;8.05;;;;;;;24.06;100.00;100566.94;4982222;28;20446;-85
2022/08/17 08:08:32;;;;;;;12.43;7.80;;;;;;;24.18;100.00;100566.72;5001287;28;20438;-84
2022/08/17 08:11:08;;;;;;;10.52;7.57;;;;;;;24.19;100.00;100571.06;4997628;28;20427;-85
2022/08/17 08:13:44;;;;;;;10.27;7.33;;;;;;;24.34;100.00;100576.84;5004262;28;20634;-85
2022/08/17 08:16:25;;;;;;;10.43;7.40;;;;;;;24.42;100.00;100573.00;4982985;28;20431;-84
2022/08/17 08:19:01;;;;;;;9.90;7.30;;;;;;;24.65;100.00;100572.91;4997915;28;20430;-84
2022/08/17 08:21:45;;;;;;;10.02;6.70;;;;;;;24.81;100.00;100571.91;4991536;28;21119;-84
2022/08/17 08:24:41;;;;;;;9.38;6.03;;;;;;;25.08;100.00;100572.56;4999512;28;20584;-85
2022/08/17 08:27:20;;;;;;;8.00;5.60;;;;;;;25.14;100.00;100584.97;4996332;28;20443;-84
2022/08/17 08:30:03;;;;;;;9.85;5.30;;;;;;;25.15;100.00;100580.19;4996835;28;20781;-84
2022/08/17 08:32:47;;;;;;;7.78;5.18;;;;;;;25.16;100.00;100579.81;4992528;28;20435;-83
2022/08/17 08:35:29;;;;;;;8.70;5.63;;;;;;;25.12;100.00;100578.97;5007550;28;20425;-84
2022/08/17 08:38:13;;;;;;;7.72;5.60;;;;;;;25.11;100.00;100575.41;4976720;28;20930;-85
2022/08/17 08:41:00;;;;;;;9.27;6.10;;;;;;;25.19;100.00;100584.63;4993308;28;20425;-84
2022/08/17 08:43:42;;;;;;;10.63;5.80;;;;;;;25.33;100.00;100584.00;4979225;28;20806;-86
2022/08/17 08:46:27;;;;;;;7.77;5.47;;;;;;;25.51;100.00;100589.75;4982033;28;20524;-85
2022/08/17 08:49:13;;;;;;;8.13;5.50;;;;;;;25.58;100.00;100570.28;4993943;28;20430;-83
2022/08/17 08:51:54;;;;;;;8.90;5.38;;;;;;;25.90;100.00;100583.66;4984457;28;20776;-85
2022/08/17 08:54:38;;;;;;;8.02;5.43;;;;;;;25.93;100.00;100594.03;5005121;28;20956;-82
2022/08/17 08:57:18;;;;;;;10.88;5.85;;;;;;;25.87;100.00;100590.03;4997439;28;20433;-85
2022/08/17 09:00:02;;;;;;;8.68;5.80;;;;;;;25.95;100.00;100596.47;4980650;28;20437;-83
2022/08/17 09:03:01;;;;;;;7.60;5.40;;;;;;;26.00;100.00;100598.84;4999093;28;20422;-84
2022/08/17 09:05:54;;;;;;;8.02;5.40;;;;;;;26.06;100.00;100602.13;4978419;28;20439;-83
2022/08/17 09:08:42;;;;;;;8.15;5.60;;;;;;;25.92;100.00;100611.16;4989132;28;20437;-84
2022/08/17 09:11:24;;;;;;;8.52;5.60;;;;;;;25.87;100.00;100612.31;5000359;28;20435;-84
2022/08/17 09:14:10;;;;;;;8.27;5.53;;;;;;;25.96;100.00;100607.22;4999765;28;20436;-83
2022/08/17 09:16:44;;;;;;;9.07;5.60;;;;;;;26.00;100.00;100612.81;4990280;28;20438;-83
2022/08/17 09:19:29;;;;;;;9.80;5.95;;;;;;;25.93;100.00;100609.97;5009074;28;20765;-84
2022/08/17 09:22:13;;;;;;;8.98;5.93;;;;;;;25.88;100.00;100601.97;4989780;28;20410;-83
2022/08/17 09:24:53;;;;;;;9.75;5.68;;;;;;;25.89;100.00;100606.34;4994564;28;20447;-83
2022/08/17 09:27:32;;;;;;;9.32;5.40;;;;;;;25.95;100.00;100604.81;5008366;28;20430;-83
2022/08/17 09:30:10;;;;;;;9.30;5.50;;;;;;;26.00;100.00;100600.84;5012964;28;20441;-83
2022/08/17 09:32:53;;;;;;;9.35;5.13;;;;;;;26.18;100.00;100604.59;5000493;28;21277;-83
2022/08/17 09:35:33;;;;;;;10.30;6.00;;;;;;;26.08;100.00;100608.91;4987994;28;21134;-84
2022/08/17 09:38:19;;;;;;;7.18;4.70;;;;;;;26.12;94.01;100595.78;5010041;28;20764;-83
2022/08/17 09:40:52;;;;;;;10.07;5.05;;;;;;;25.94;98.60;100601.22;5010572;28;20527;-80
2022/08/17 09:43:33;;;;;;;8.63;5.05;;;;;;;25.93;100.00;100599.59;5001338;28;20421;-82
2022/08/17 09:46:15;;;;;;;7.97;4.70;;;;;;;25.84;100.00;100601.94;5001630;28;20783;-84
2022/08/17 09:48:50;;;;;;;7.43;4.60;;;;;;;25.94;100.00;100600.44;4988014;28;20433;-83
2022/08/17 09:51:31;;;;;;;8.98;4.45;;;;;;;25.98;93.23;100596.47;4996315;28;20608;-83
2022/08/17 09:54:10;;;;;;;6.45;4.32;;;;;;;26.04;97.21;100596.94;4984361;28;20434;-84
2022/08/17 09:56:55;;;;;;;6.70;4.53;;;;;;;26.20;94.44;100593.03;4997166;28;20440;-84
2022/08/17 09:59:45;;;;;;;8.52;4.68;;;;;;;26.60;92.93;100591.28;4977855;28;20994;-85
2022/08/17 10:02:36;;;;;;;8.23;4.60;;;;;;;26.50;89.99;100603.97;5001483;28;20455;-82
2022/08/17 10:05:08;;;;;;;9.32;4.50;;;;;;;26.57;94.63;100601.22;5000647;28;20424;-83
2022/08/17 10:07:51;;;;;;;6.38;4.20;;;;;;;26.68;98.43;100603.25;4997119;28;20427;-84
2022/08/17 10:10:28;;;;;;;9.02;4.13;;;;;;;26.71;95.45;100608.88;4979903;28;20433;-83
2022/08/17 10:13:10;;;;;;;7.10;4.63;;;;;;;26.88;93.76;100596.16;4983416;28;20758;-82
2022/08/17 10:15:53;;;;;;;12.55;4.68;;;;;;;26.73;97.79;100594.53;4982358;28;20831;-83
2022/08/17 10:18:36;;;;;;;8.38;4.60;;;;;;;26.84;89.57;100600.94;4996032;28;22000;-83
2022/08/17 10:27:11;;;;;;;7.97;4.90;;;;;;;26.72;92.51;100598.50;4997203;28;20915;-85
2022/08/17 10:29:44;;;;;;;9.95;4.80;;;;;;;26.67;91.74;100605.25;5008479;28;20409;-85
2022/08/17 10:32:31;;;;;;;9.55;6.55;;;;;;;26.81;83.63;100605.31;5010467;28;20440;-83
2022/08/17 10:35:28;;;;;;;7.70;4.90;;;;;;;26.94;83.05;100599.38;4979725;28;20785;-85
2022/08/17 10:38:30;;;;;;;8.55;4.75;;;;;;;26.93;92.20;100601.38;4982153;28;21488;-85
2022/08/17 10:41:16;;;;;;;9.30;5.00;;;;;;;27.00;90.88;100595.03;5009760;28;20447;-83
2022/08/17 10:43:58;;;;;;;6.53;4.60;;;;;;;26.91;84.30;100591.78;4984950;28;20444;-85
2022/08/17 10:46:53;;;;;;;6.95;4.60;;;;;;;26.88;81.67;100596.16;4984557;28;20427;-82
2022/08/17 10:49:29;;;;;;;7.85;4.70;;;;;;;26.74;89.71;100598.94;5002840;28;20664;-83
2022/08/17 10:52:47;;;;;;;9.35;4.75;;;;;;;26.89;81.40;100602.53;4981831;28;20429;-83
2022/08/17 10:55:20;;;;;;;7.32;4.95;;;;;;;26.92;91.02;100599.78;5009837;28;20470;-84
2022/08/17 10:57:50;;;;;;;7.05;4.65;;;;;;;26.86;97.25;100592.16;4991078;28;20450;-84
2022/08/17 11:01:07;;;;;;;6.80;4.90;;;;;;;27.12;82.74;100594.66;4997351;28;21617;-82
2022/08/17 11:03:52;;;;;;;8.53;4.50;;;;;;;27.05;82.02;100582.66;4989413;28;20433;-82
2022/08/17 11:06:36;;;;;;;7.97;4.32;;;;;;;27.15;88.27;100584.66;5006137;28;20975;-83
2022/08/17 11:09:26;;;;;;;7.10;4.47;;;;;;;27.25;77.56;100575.50;4979196;28;21771;-84
2022/08/17 11:12:20;;;;;;;6.57;4.45;;;;;;;27.51;86.80;100575.53;4993196;28;21447;-85
2022/08/17 11:15:01;;;;;;;6.60;4.40;;;;;;;27.61;77.75;100569.97;4983322;28;20442;-84
2022/08/17 11:18:08;;;;;;;7.13;4.40;;;;;;;27.53;88.23;100581.56;4996104;28;20431;-84
2022/08/17 11:21:02;;;;;;;7.60;4.07;;;;;;;27.52;83.95;100563.19;5000586;28;20799;-83
2022/08/17 11:23:57;;;;;;;8.10;4.30;;;;;;;27.68;91.47;100574.75;4999439;28;20843;-83
2022/08/17 11:26:34;;;;;;;7.45;4.40;;;;;;;27.70;81.38;100571.56;4999425;28;20792;-83
2022/08/17 11:29:08;;;;;;;7.47;4.30;;;;;;;27.46;73.70;100576.75;4991535;28;20450;-84
2022/08/17 11:31:43;;;;;;;8.20;4.30;;;;;;;27.48;78.24;100580.75;5020223;28;21231;-84
2022/08/17 11:34:20;;;;;;;7.10;4.10;;;;;;;27.26;86.66;100573.50;4995201;28;20431;-85
2022/08/17 11:37:10;;;;;;;6.82;4.60;;;;;;;27.25;71.90;100567.13;4975778;28;21614;-84
2022/08/17 11:39:52;;;;;;;6.85;4.55;;;;;;;27.28;82.49;100571.13;5005939;28;20423;-85
2022/08/17 11:42:38;;;;;;;6.68;4.25;;;;;;;27.25;77.68;100567.13;4999701;28;20437;-85
2022/08/17 11:45:30;;;;;;;8.73;4.50;;;;;;;27.05;83.13;100560.31;4991279;28;20497;-85
2022/08/17 11:54:08;;;;;;;7.22;4.60;;;;;;;27.76;77.61;100551.19;5000764;28;20457;-84
2022/08/17 11:56:45;;;;;;;7.80;4.43;;;;;;;27.77;77.45;100544.41;5006206;28;20643;-84
2022/08/17 11:59:53;;;;;;;9.40;4.68;;;;;;;28.07;80.97;100550.75;5003390;28;20442;-85
2022/08/17 12:02:44;;;;;;;7.47;4.73;;;;;;;28.19;77.54;100550.31;4962897;28;20444;-84
2022/08/17 12:05:39;;;;;;;8.18;4.70;;;;;;;28.36;77.68;100545.06;4993426;28;20898;-86
2022/08/17 12:08:18;;;;;;;6.90;4.88;;;;;;;28.47;78.29;100546.59;5004480;28;20442;-85
2022/08/17 12:10:59;;;;;;;7.10;4.70;;;;;;;28.57;74.06;100536.56;5010362;28;20434;-84
2022/08/17 12:13:41;;;;;;;6.95;4.60;;;;;;;28.65;73.92;100546.53;5011507;28;20433;-84
2022/08/17 12:16:17;;;;;;;8.98;4.90;;;;;;;28.82;73.48;100536.47;5004422;28;20922;-84
2022/08/17 12:18:52;;;;;;;7.15;4.47;;;;;;;29.10;76.42;100533.88;4992784;28;21278;-84
2022/08/17 12:21:40;;;;;;;6.85;4.40;;;;;;;28.85;73.91;100546.06;4980114;28;20776;-86
2022/08/17 12:24:22;;;;;;;8.07;4.40;;;;;;;28.75;71.02;100538.50;4983239;28;20435;-84
2022/08/17 12:26:55;;;;;;;7.50;4.47;;;;;;;28.67;70.58;100541.34;4996760;28;21705;-85
2022/08/17 12:29:24;;;;;;;6.90;4.60;;;;;;;28.70;78.16;100542.53;4980641;28;20997;-83